createdAt,value
2023-05-20T00:00:50.194Z,13.78
2023-05-20T00:01:50.193Z,13.78
2023-05-20T00:02:50.254Z,13.79
2023-05-20T00:03:50.325Z,13.78
2023-05-20T00:04:50.198Z,13.78
2023-05-20T00:05:50.130Z,13.78
2023-05-20T00:06:50.286Z,13.78
2023-05-20T00:07:50.105Z,13.78
2023-05-20T00:08:50.093Z,13.78
2023-05-20T00:09:50.079Z,13.78
2023-05-20T00:10:50.066Z,13.78
2023-05-20T00:11:50.055Z,13.78
2023-05-20T00:12:50.053Z,13.78
2023-05-20T00:13:50.024Z,13.78
2023-05-20T00:14:50.037Z,13.78
2023-05-20T00:15:49.999Z,13.78
2023-05-20T00:16:50.032Z,13.76
2023-05-20T00:17:49.989Z,13.75
2023-05-20T00:18:49.986Z,13.78
2023-05-20T00:19:49.947Z,13.78
2023-05-20T00:20:49.936Z,13.76
2023-05-20T00:21:49.930Z,13.75
2023-05-20T00:22:49.940Z,13.75
2023-05-20T00:23:49.893Z,13.76
2023-05-20T00:24:49.882Z,13.76
2023-05-20T00:25:49.874Z,13.75
2023-05-20T00:26:49.854Z,13.76
2023-05-20T00:27:49.845Z,13.75
2023-05-20T00:28:49.835Z,13.75
2023-05-20T00:29:49.813Z,13.76
2023-05-20T00:30:49.801Z,13.75
2023-05-20T00:31:49.839Z,13.75
2023-05-20T00:32:49.842Z,13.76
2023-05-20T00:33:49.760Z,13.73
2023-05-20T00:34:49.747Z,13.75
2023-05-20T00:35:49.741Z,13.75
2023-05-20T00:36:49.721Z,13.75
2023-05-20T00:37:49.709Z,13.75
2023-05-20T00:38:49.719Z,13.75
2023-05-20T00:39:49.678Z,13.75
2023-05-20T00:40:49.702Z,13.73
2023-05-20T00:41:49.654Z,13.73
2023-05-20T00:42:49.657Z,13.75
2023-05-20T00:43:49.626Z,13.75
2023-05-20T00:44:49.623Z,13.75
2023-05-20T00:45:49.620Z,13.75
2023-05-20T00:46:49.591Z,13.73
2023-05-20T00:47:49.640Z,13.73
2023-05-20T00:48:49.563Z,13.73
2023-05-20T00:49:50.548Z,13.73
2023-05-20T00:50:49.536Z,13.75
2023-05-20T00:51:49.522Z,13.72
2023-05-20T00:52:49.508Z,13.73
2023-05-20T00:53:49.505Z,13.73
2023-05-20T00:54:49.527Z,13.73
2023-05-20T00:55:49.471Z,13.73
2023-05-20T00:56:49.460Z,13.73
2023-05-20T00:57:49.456Z,13.73
2023-05-20T00:58:49.433Z,13.72
2023-05-20T00:59:49.420Z,13.73
2023-05-20T01:00:49.407Z,13.73
2023-05-20T01:01:49.537Z,13.73
2023-05-20T01:02:49.493Z,13.72
2023-05-20T01:03:49.419Z,13.72
2023-05-20T01:04:49.358Z,13.73
2023-05-20T01:05:49.339Z,13.72
2023-05-20T01:06:49.325Z,13.72
2023-05-20T01:07:49.313Z,13.73
2023-05-20T01:08:49.306Z,13.72
2023-05-20T01:09:49.287Z,13.72
2023-05-20T01:10:49.297Z,13.73
2023-05-20T01:11:49.262Z,13.70
2023-05-20T01:12:49.249Z,13.72
2023-05-20T01:13:49.235Z,13.70
2023-05-20T01:14:49.220Z,13.72
2023-05-20T01:15:49.238Z,13.72
2023-05-20T01:16:49.194Z,13.70
2023-05-20T01:17:49.204Z,13.72
2023-05-20T01:18:49.190Z,13.72
2023-05-20T01:19:49.232Z,13.70
2023-05-20T01:20:49.145Z,13.70
2023-05-20T01:21:49.132Z,13.70
2023-05-20T01:22:49.121Z,13.70
2023-05-20T01:23:49.098Z,13.70
2023-05-20T01:24:49.089Z,13.70
2023-05-20T01:25:49.079Z,13.70
2023-05-20T01:26:49.089Z,13.70
2023-05-20T01:27:49.167Z,13.70
2023-05-20T01:28:49.038Z,13.70
2023-05-20T01:29:49.024Z,13.70
2023-05-20T01:30:49.014Z,13.70
2023-05-20T01:31:49.028Z,13.69
2023-05-20T01:32:49.008Z,13.69
2023-05-20T01:33:48.970Z,13.69
2023-05-20T01:34:48.958Z,13.68
2023-05-20T01:35:48.952Z,13.69
2023-05-20T01:36:48.931Z,13.69
2023-05-20T01:37:48.918Z,13.69
2023-05-20T01:38:48.907Z,13.69
2023-05-20T01:39:48.894Z,13.69
2023-05-20T01:40:48.882Z,13.70
2023-05-20T01:41:48.866Z,13.69
2023-05-20T01:42:48.882Z,13.68
2023-05-20T01:43:48.840Z,13.68
2023-05-20T01:44:48.828Z,13.68
2023-05-20T01:45:48.822Z,13.68
2023-05-20T01:46:48.839Z,13.68
2023-05-20T01:47:48.809Z,13.68
2023-05-20T01:48:48.779Z,13.68
2023-05-20T01:49:48.760Z,13.69
2023-05-20T01:50:48.749Z,13.68
2023-05-20T01:51:48.736Z,13.69
2023-05-20T01:52:48.726Z,13.68
2023-05-20T01:53:48.711Z,13.68
2023-05-20T01:54:48.700Z,13.68
2023-05-20T01:55:48.686Z,13.68
2023-05-20T01:56:48.670Z,13.68
2023-05-20T01:57:48.658Z,13.69
2023-05-20T01:58:48.671Z,13.69
2023-05-20T01:59:48.639Z,13.68
2023-05-20T02:00:48.639Z,13.66
2023-05-20T02:01:48.662Z,13.68
2023-05-20T02:02:48.715Z,13.66
2023-05-20T02:03:48.586Z,13.68
2023-05-20T02:04:48.571Z,13.68
2023-05-20T02:05:48.591Z,13.66
2023-05-20T02:06:48.541Z,13.66
2023-05-20T02:07:48.529Z,13.66
2023-05-20T02:08:48.514Z,13.68
2023-05-20T02:09:48.502Z,13.66
2023-05-20T02:10:48.488Z,13.66
2023-05-20T02:11:48.476Z,13.66
2023-05-20T02:12:48.464Z,13.66
2023-05-20T02:13:48.451Z,13.66
2023-05-20T02:14:48.468Z,13.66
2023-05-20T02:15:48.426Z,13.68
2023-05-20T02:16:48.536Z,13.66
2023-05-20T02:17:48.427Z,13.66
2023-05-20T02:18:48.442Z,13.64
2023-05-20T02:19:48.376Z,13.64
2023-05-20T02:20:48.362Z,13.66
2023-05-20T02:21:48.350Z,13.68
2023-05-20T02:22:48.336Z,13.68
2023-05-20T02:23:48.326Z,13.66
2023-05-20T02:24:48.307Z,13.66
2023-05-20T02:25:48.299Z,13.64
2023-05-20T02:26:48.282Z,13.64
2023-05-20T02:27:48.274Z,13.66
2023-05-20T02:28:48.254Z,13.64
2023-05-20T02:29:48.248Z,13.64
2023-05-20T02:30:48.254Z,13.64
2023-05-20T02:31:48.219Z,13.64
2023-05-20T02:32:48.276Z,13.66
2023-05-20T02:33:48.206Z,13.64
2023-05-20T02:34:48.195Z,13.64
2023-05-20T02:35:48.169Z,13.64
2023-05-20T02:36:48.202Z,13.64
2023-05-20T02:37:48.148Z,13.64
2023-05-20T02:38:48.137Z,13.64
2023-05-20T02:39:48.118Z,13.62
2023-05-20T02:40:48.109Z,13.64
2023-05-20T02:41:48.088Z,13.62
2023-05-20T02:42:48.111Z,13.62
2023-05-20T02:43:48.071Z,13.62
2023-05-20T02:44:48.051Z,13.64
2023-05-20T02:45:48.060Z,13.64
2023-05-20T02:46:48.049Z,13.64
2023-05-20T02:47:48.052Z,13.62
2023-05-20T02:48:47.992Z,13.64
2023-05-20T02:49:47.995Z,13.64
2023-05-20T02:50:47.970Z,13.62
2023-05-20T02:51:47.962Z,13.64
2023-05-20T02:52:47.953Z,13.64
2023-05-20T02:53:47.937Z,13.64
2023-05-20T02:54:47.913Z,13.62
2023-05-20T02:55:47.920Z,13.64
2023-05-20T02:56:47.897Z,13.64
2023-05-20T02:57:47.891Z,13.64
2023-05-20T02:58:47.863Z,13.62
2023-05-20T02:59:47.851Z,13.62
2023-05-20T03:00:47.839Z,13.62
2023-05-20T03:01:47.899Z,13.64
2023-05-20T03:02:47.867Z,13.62
2023-05-20T03:03:47.801Z,13.64
2023-05-20T03:04:47.927Z,13.62
2023-05-20T03:05:47.777Z,13.62
2023-05-20T03:06:47.760Z,13.62
2023-05-20T03:07:47.759Z,13.62
2023-05-20T03:08:47.741Z,13.62
2023-05-20T03:09:47.723Z,13.61
2023-05-20T03:10:47.730Z,13.62
2023-05-20T03:11:47.697Z,13.62
2023-05-20T03:12:47.686Z,13.64
2023-05-20T03:13:47.674Z,13.61
2023-05-20T03:14:47.659Z,13.62
2023-05-20T03:15:47.682Z,13.61
2023-05-20T03:16:47.630Z,13.62
2023-05-20T03:17:47.655Z,13.61
2023-05-20T03:18:47.682Z,13.61
2023-05-20T03:19:47.593Z,13.62
2023-05-20T03:20:47.580Z,13.61
2023-05-20T03:21:47.565Z,13.60
2023-05-20T03:22:47.557Z,13.61
2023-05-20T03:23:47.545Z,13.61
2023-05-20T03:24:47.527Z,13.60
2023-05-20T03:25:47.513Z,13.61
2023-05-20T03:26:47.522Z,13.60
2023-05-20T03:27:47.484Z,13.61
2023-05-20T03:28:47.472Z,13.60
2023-05-20T03:29:47.461Z,13.60
2023-05-20T03:30:47.450Z,13.58
2023-05-20T03:31:47.509Z,13.58
2023-05-20T03:32:47.448Z,13.60
2023-05-20T03:33:47.414Z,13.60
2023-05-20T03:34:47.416Z,13.60
2023-05-20T03:35:47.407Z,13.60
2023-05-20T03:36:47.364Z,13.60
2023-05-20T03:37:47.362Z,13.58
2023-05-20T03:38:47.340Z,13.60
2023-05-20T03:39:47.328Z,13.60
2023-05-20T03:40:47.313Z,13.58
2023-05-20T03:41:47.301Z,13.60
2023-05-20T03:42:47.288Z,13.58
2023-05-20T03:43:47.274Z,13.58
2023-05-20T03:44:47.269Z,13.57
2023-05-20T03:45:47.288Z,13.58
2023-05-20T03:46:47.291Z,13.57
2023-05-20T03:47:47.296Z,13.60
2023-05-20T03:48:47.205Z,13.57
2023-05-20T03:49:47.195Z,13.58
2023-05-20T03:50:47.210Z,13.58
2023-05-20T03:51:47.189Z,13.58
2023-05-20T03:52:47.155Z,13.58
2023-05-20T03:53:47.144Z,13.58
2023-05-20T03:54:47.137Z,13.58
2023-05-20T03:55:47.144Z,13.58
2023-05-20T03:56:47.159Z,13.58
2023-05-20T03:57:47.103Z,13.58
2023-05-20T03:58:47.078Z,13.58
2023-05-20T03:59:47.064Z,13.57
2023-05-20T04:00:47.104Z,13.57
2023-05-20T04:01:47.138Z,13.58
2023-05-20T04:02:47.088Z,13.58
2023-05-20T04:03:47.085Z,13.55
2023-05-20T04:04:47.002Z,13.58
2023-05-20T04:05:47.015Z,13.57
2023-05-20T04:06:46.998Z,13.57
2023-05-20T04:07:46.965Z,13.57
2023-05-20T04:08:46.956Z,13.58
2023-05-20T04:09:46.939Z,13.57
2023-05-20T04:10:46.939Z,13.57
2023-05-20T04:11:46.920Z,13.57
2023-05-20T04:12:46.902Z,13.57
2023-05-20T04:13:46.884Z,13.57
2023-05-20T04:14:46.876Z,13.57
2023-05-20T04:15:46.857Z,13.55
2023-05-20T04:16:46.856Z,13.55
2023-05-20T04:17:46.848Z,13.57
2023-05-20T04:18:46.829Z,13.55
2023-05-20T04:19:46.821Z,13.55
2023-05-20T04:20:46.788Z,13.55
2023-05-20T04:21:46.775Z,13.57
2023-05-20T04:22:46.785Z,13.57
2023-05-20T04:23:46.761Z,13.55
2023-05-20T04:24:46.739Z,13.54
2023-05-20T04:25:46.724Z,13.55
2023-05-20T04:26:46.708Z,13.57
2023-05-20T04:27:46.697Z,13.54
2023-05-20T04:28:46.683Z,13.55
2023-05-20T04:29:46.671Z,13.57
2023-05-20T04:30:46.656Z,13.55
2023-05-20T04:31:46.659Z,13.55
2023-05-20T04:32:46.638Z,13.55
2023-05-20T04:33:46.649Z,13.57
2023-05-20T04:34:46.608Z,13.57
2023-05-20T04:35:46.591Z,13.57
2023-05-20T04:36:46.580Z,13.55
2023-05-20T04:37:46.568Z,13.57
2023-05-20T04:38:46.588Z,13.55
2023-05-20T04:39:46.541Z,13.55
2023-05-20T04:40:46.524Z,13.57
2023-05-20T04:41:46.515Z,13.55
2023-05-20T04:42:46.498Z,13.57
2023-05-20T04:43:46.487Z,13.57
2023-05-20T04:44:46.474Z,13.55
2023-05-20T04:45:46.493Z,13.55
2023-05-20T04:46:46.458Z,13.57
2023-05-20T04:47:46.466Z,13.57
2023-05-20T04:48:46.424Z,13.57
2023-05-20T04:49:46.417Z,13.57
2023-05-20T04:50:46.396Z,13.57
2023-05-20T04:51:46.384Z,13.57
2023-05-20T04:52:46.376Z,13.57
2023-05-20T04:53:46.419Z,13.58
2023-05-20T04:54:46.371Z,13.57
2023-05-20T04:55:46.337Z,13.58
2023-05-20T04:56:46.313Z,13.58
2023-05-20T04:57:46.305Z,13.57
2023-05-20T04:58:46.304Z,13.57
2023-05-20T04:59:46.280Z,13.58
2023-05-20T05:00:46.262Z,13.57
2023-05-20T05:01:46.301Z,13.57
2023-05-20T05:02:46.277Z,13.57
2023-05-20T05:03:46.224Z,13.57
2023-05-20T05:04:46.271Z,13.58
2023-05-20T05:05:46.216Z,13.58
2023-05-20T05:06:46.189Z,13.58
2023-05-20T05:07:46.183Z,13.57
2023-05-20T05:08:46.161Z,13.57
2023-05-20T05:09:46.153Z,13.58
2023-05-20T05:10:46.158Z,13.57
2023-05-20T05:11:46.132Z,13.58
2023-05-20T05:12:46.109Z,13.57
2023-05-20T05:13:46.103Z,13.57
2023-05-20T05:14:46.088Z,13.57
2023-05-20T05:15:46.104Z,13.58
2023-05-20T05:16:46.056Z,13.57
2023-05-20T05:17:46.107Z,13.57
2023-05-20T05:18:46.083Z,13.57
2023-05-20T05:19:46.022Z,13.57
2023-05-20T05:20:46.015Z,13.58
2023-05-20T05:21:45.995Z,13.57
2023-05-20T05:22:45.980Z,13.57
2023-05-20T05:23:45.994Z,13.58
2023-05-20T05:24:45.952Z,13.57
2023-05-20T05:25:45.941Z,13.57
2023-05-20T05:26:45.993Z,13.58
2023-05-20T05:27:45.922Z,13.58
2023-05-20T05:28:45.901Z,13.58
2023-05-20T05:29:45.887Z,13.57
2023-05-20T05:30:45.875Z,13.57
2023-05-20T05:31:45.901Z,13.57
2023-05-20T05:32:45.889Z,13.58
2023-05-20T05:33:45.843Z,13.58
2023-05-20T05:34:45.825Z,13.58
2023-05-20T05:35:45.813Z,13.58
2023-05-20T05:36:45.798Z,13.58
2023-05-20T05:37:45.784Z,13.57
2023-05-20T05:38:45.778Z,13.55
2023-05-20T05:39:45.759Z,13.57
2023-05-20T05:40:45.765Z,13.57
2023-05-20T05:41:45.750Z,13.55
2023-05-20T05:42:45.738Z,13.55
2023-05-20T05:43:45.716Z,13.55
2023-05-20T05:44:45.690Z,13.57
2023-05-20T05:45:45.680Z,13.57
2023-05-20T05:46:45.681Z,13.55
2023-05-20T05:47:45.683Z,13.55
2023-05-20T05:48:45.637Z,13.55
2023-05-20T05:49:45.625Z,13.55
2023-05-20T05:50:45.624Z,13.55
2023-05-20T05:51:45.603Z,13.55
2023-05-20T05:52:45.583Z,13.54
2023-05-20T05:53:45.577Z,13.55
2023-05-20T05:54:45.557Z,13.55
2023-05-20T05:55:45.546Z,13.57
2023-05-20T05:56:45.532Z,13.54
2023-05-20T05:57:45.518Z,13.54
2023-05-20T05:58:45.534Z,13.55
2023-05-20T05:59:45.505Z,13.54
2023-05-20T06:00:45.535Z,13.54
2023-05-20T06:01:45.513Z,13.55
2023-05-20T06:02:45.702Z,13.54
2023-05-20T06:03:45.538Z,13.54
2023-05-20T06:04:45.427Z,13.54
2023-05-20T06:05:45.426Z,13.54
2023-05-20T06:06:45.402Z,13.54
2023-05-20T06:07:45.389Z,13.54
2023-05-20T06:08:45.374Z,13.54
2023-05-20T06:09:45.362Z,13.54
2023-05-20T06:10:45.348Z,13.55
2023-05-20T06:11:45.336Z,13.53
2023-05-20T06:12:45.336Z,13.55
2023-05-20T06:13:45.310Z,13.54
2023-05-20T06:14:45.330Z,13.54
2023-05-20T06:15:45.286Z,13.54
2023-05-20T06:16:45.331Z,13.54
2023-05-20T06:17:45.303Z,13.54
2023-05-20T06:18:45.314Z,13.54
2023-05-20T06:19:45.227Z,13.55
2023-05-20T06:20:45.220Z,13.54
2023-05-20T06:21:45.211Z,13.53
2023-05-20T06:22:45.202Z,13.54
2023-05-20T06:23:45.179Z,13.54
2023-05-20T06:24:45.168Z,13.55
2023-05-20T06:25:45.155Z,13.55
2023-05-20T06:26:45.142Z,13.55
2023-05-20T06:27:45.132Z,13.55
2023-05-20T06:28:45.118Z,13.55
2023-05-20T06:29:45.101Z,13.54
2023-05-20T06:30:45.175Z,13.55
2023-05-20T06:31:45.079Z,13.55
2023-05-20T06:32:45.080Z,13.55
2023-05-20T06:33:45.050Z,13.55
2023-05-20T06:34:45.044Z,13.55
2023-05-20T06:35:45.029Z,13.55
2023-05-20T06:36:45.024Z,13.55
2023-05-20T06:37:45.054Z,13.54
2023-05-20T06:38:44.986Z,13.57
2023-05-20T06:39:44.981Z,13.55
2023-05-20T06:40:44.962Z,13.55
2023-05-20T06:41:44.948Z,13.57
2023-05-20T06:42:44.935Z,13.57
2023-05-20T06:43:44.929Z,13.55
2023-05-20T06:44:44.934Z,13.54
2023-05-20T06:45:44.893Z,13.55
2023-05-20T06:46:44.977Z,13.57
2023-05-20T06:47:44.890Z,13.55
2023-05-20T06:48:44.873Z,13.55
2023-05-20T06:49:47.416Z,13.55
2023-05-20T06:50:44.831Z,13.55
2023-05-20T06:51:44.817Z,13.54
2023-05-20T06:52:44.808Z,13.54
2023-05-20T06:53:44.795Z,13.54
2023-05-20T06:54:44.778Z,13.55
2023-05-20T06:55:44.779Z,13.55
2023-05-20T06:56:44.775Z,13.55
2023-05-20T06:57:44.756Z,13.55
2023-05-20T06:58:44.729Z,13.55
2023-05-20T06:59:44.717Z,13.55
2023-05-20T07:00:44.697Z,13.55
2023-05-20T07:01:44.768Z,13.57
2023-05-20T07:02:44.743Z,13.55
2023-05-20T07:03:44.741Z,13.55
2023-05-20T07:04:44.651Z,13.57
2023-05-20T07:05:44.639Z,13.57
2023-05-20T07:06:44.636Z,13.57
2023-05-20T07:07:44.612Z,13.55
2023-05-20T07:08:44.602Z,13.57
2023-05-20T07:09:44.584Z,13.55
2023-05-20T07:10:44.567Z,13.57
2023-05-20T07:11:44.573Z,13.57
2023-05-20T07:12:44.564Z,13.58
2023-05-20T07:13:44.537Z,13.58
2023-05-20T07:14:44.523Z,13.58
2023-05-20T07:15:44.538Z,13.58
2023-05-20T07:16:44.490Z,13.57
2023-05-20T07:17:44.515Z,13.58
2023-05-20T07:18:44.568Z,13.60
2023-05-20T07:19:44.451Z,13.58
2023-05-20T07:20:44.442Z,13.58
2023-05-20T07:21:44.427Z,13.60
2023-05-20T07:22:44.410Z,13.58
2023-05-20T07:23:44.393Z,13.60
2023-05-20T07:24:44.384Z,13.60
2023-05-20T07:25:44.384Z,13.58
2023-05-20T07:26:44.357Z,13.60
2023-05-20T07:27:44.356Z,13.61
2023-05-20T07:28:44.354Z,13.60
2023-05-20T07:29:44.314Z,13.60
2023-05-20T07:30:44.309Z,13.61
2023-05-20T07:31:44.323Z,13.60
2023-05-20T07:32:44.360Z,13.61
2023-05-20T07:33:44.263Z,13.60
2023-05-20T07:34:44.280Z,13.62
2023-05-20T07:35:44.240Z,13.61
2023-05-20T07:36:44.230Z,13.60
2023-05-20T07:37:44.213Z,13.61
2023-05-20T07:38:53.150Z,13.61
2023-05-20T07:39:45.226Z,13.62
2023-05-20T07:40:44.187Z,13.64
2023-05-20T07:41:44.170Z,13.64
2023-05-20T07:42:44.148Z,13.62
2023-05-20T07:43:44.139Z,13.66
2023-05-20T07:44:44.135Z,13.64
2023-05-20T07:45:44.146Z,13.68
2023-05-20T07:46:44.132Z,13.68
2023-05-20T07:47:44.125Z,13.68
2023-05-20T07:48:44.072Z,13.66
2023-05-20T07:49:44.074Z,13.68
2023-05-20T07:50:44.072Z,13.68
2023-05-20T07:51:44.036Z,13.68
2023-05-20T07:52:55.010Z,13.68
2023-05-20T07:53:45.045Z,13.66
2023-05-20T07:54:43.992Z,13.66
2023-05-20T07:55:43.976Z,13.66
2023-05-20T07:56:43.980Z,13.64
2023-05-20T07:57:44.864Z,13.66
2023-05-20T07:58:43.941Z,13.66
2023-05-20T07:59:43.927Z,13.66
2023-05-20T08:00:43.912Z,13.64
2023-05-20T08:01:43.897Z,13.66
2023-05-20T08:02:44.044Z,13.64
2023-05-20T08:03:44.007Z,13.64
2023-05-20T08:04:43.909Z,13.64
2023-05-20T08:05:43.850Z,13.62
2023-05-20T08:06:43.865Z,13.64
2023-05-20T08:07:43.823Z,13.64
2023-05-20T08:08:43.810Z,13.64
2023-05-20T08:09:43.795Z,13.64
2023-05-20T08:10:43.787Z,13.64
2023-05-20T08:11:44.779Z,13.64
2023-05-20T08:12:43.756Z,13.64
2023-05-20T08:13:43.756Z,13.64
2023-05-20T08:14:43.734Z,13.62
2023-05-20T08:15:43.712Z,13.64
2023-05-20T08:16:43.728Z,13.62
2023-05-20T08:17:43.754Z,13.62
2023-05-20T08:18:43.735Z,13.64
2023-05-20T08:19:43.668Z,13.62
2023-05-20T08:20:43.649Z,13.64
2023-05-20T08:21:43.639Z,13.64
2023-05-20T08:22:43.680Z,13.64
2023-05-20T08:23:43.611Z,13.62
2023-05-20T08:24:43.601Z,13.64
2023-05-20T08:25:43.587Z,13.64
2023-05-20T08:26:43.572Z,13.64
2023-05-20T08:27:43.557Z,13.64
2023-05-20T08:28:43.552Z,13.64
2023-05-20T08:29:43.539Z,13.66
2023-05-20T08:30:43.548Z,13.66
2023-05-20T08:31:43.556Z,13.66
2023-05-20T08:32:43.580Z,13.66
2023-05-20T08:33:43.488Z,13.66
2023-05-20T08:34:43.468Z,13.66
2023-05-20T08:35:43.462Z,13.68
2023-05-20T08:36:43.444Z,13.66
2023-05-20T08:37:43.432Z,13.66
2023-05-20T08:38:43.441Z,13.66
2023-05-20T08:39:43.416Z,13.68
2023-05-20T08:40:43.389Z,13.64
2023-05-20T08:41:43.377Z,13.64
2023-05-20T08:42:43.384Z,13.68
2023-05-20T08:43:43.357Z,13.68
2023-05-20T08:44:43.338Z,13.66
2023-05-20T08:45:43.325Z,13.66
2023-05-20T08:46:43.360Z,13.66
2023-05-20T08:47:43.321Z,13.66
2023-05-20T08:48:43.288Z,13.68
2023-05-20T08:49:43.274Z,13.66
2023-05-20T08:50:43.263Z,13.66
2023-05-20T08:51:43.248Z,13.64
2023-05-20T08:52:43.239Z,13.66
2023-05-20T08:53:43.225Z,13.66
2023-05-20T08:54:43.240Z,13.64
2023-05-20T08:55:43.205Z,13.64
2023-05-20T08:56:43.186Z,13.64
2023-05-20T08:57:43.172Z,13.66
2023-05-20T08:58:43.184Z,13.68
2023-05-20T08:59:43.146Z,13.68
2023-05-20T09:00:43.132Z,13.66
2023-05-20T09:01:43.256Z,13.68
2023-05-20T09:02:43.149Z,13.68
2023-05-20T09:03:43.094Z,13.68
2023-05-20T09:04:43.102Z,13.66
2023-05-20T09:05:43.066Z,13.66
2023-05-20T09:06:43.059Z,13.64
2023-05-20T09:07:43.042Z,13.66
2023-05-20T09:08:43.054Z,13.66
2023-05-20T09:09:43.017Z,13.66
2023-05-20T09:10:43.032Z,13.69
2023-05-20T09:11:42.994Z,13.69
2023-05-20T09:12:42.978Z,13.69
2023-05-20T09:13:42.975Z,13.70
2023-05-20T09:14:42.953Z,13.70
2023-05-20T09:15:42.939Z,13.70
2023-05-20T09:16:43.029Z,13.70
2023-05-20T09:17:42.964Z,13.69
2023-05-20T09:18:42.974Z,13.69
2023-05-20T09:19:42.886Z,13.69
2023-05-20T09:20:42.873Z,13.70
2023-05-20T09:21:42.863Z,13.69
2023-05-20T09:22:42.846Z,13.68
2023-05-20T09:23:42.831Z,13.69
2023-05-20T09:24:42.838Z,13.69
2023-05-20T09:25:42.806Z,13.70
2023-05-20T09:26:42.816Z,13.69
2023-05-20T09:27:42.779Z,13.66
2023-05-20T09:28:42.766Z,13.66
2023-05-20T09:29:42.751Z,13.66
2023-05-20T09:30:44.486Z,13.66
2023-05-20T09:31:42.740Z,13.68
2023-05-20T09:32:42.731Z,13.68
2023-05-20T09:33:42.708Z,13.64
2023-05-20T09:34:42.691Z,13.64
2023-05-20T09:35:42.681Z,13.64
2023-05-20T09:36:42.664Z,13.64
2023-05-20T09:37:42.646Z,13.64
2023-05-20T09:38:42.637Z,13.66
2023-05-20T09:39:42.622Z,13.68
2023-05-20T09:40:42.608Z,13.69
2023-05-20T09:41:42.595Z,13.68
2023-05-20T09:42:42.612Z,13.69
2023-05-20T09:43:42.622Z,13.69
2023-05-20T09:44:42.573Z,13.70
2023-05-20T09:45:42.585Z,13.70
2023-05-20T09:46:42.535Z,13.68
2023-05-20T09:47:42.533Z,13.70
2023-05-20T09:48:42.512Z,13.72
2023-05-20T09:49:42.499Z,13.69
2023-05-20T09:50:42.487Z,13.72
2023-05-20T09:51:42.467Z,13.75
2023-05-20T09:52:42.458Z,13.73
2023-05-20T09:53:42.446Z,13.76
2023-05-20T09:54:42.425Z,13.76
2023-05-20T09:55:42.412Z,13.75
2023-05-20T09:56:42.400Z,13.76
2023-05-20T09:57:42.412Z,13.76
2023-05-20T09:58:42.405Z,13.76
2023-05-20T09:59:42.378Z,13.78
2023-05-20T10:00:42.374Z,13.76
2023-05-20T10:01:42.383Z,13.76
2023-05-20T10:02:42.430Z,13.75
2023-05-20T10:03:44.157Z,13.76
2023-05-20T10:04:42.305Z,13.76
2023-05-20T10:05:42.289Z,13.76
2023-05-20T10:06:42.276Z,13.75
2023-05-20T10:07:42.762Z,13.75
2023-05-20T10:08:42.248Z,13.76
2023-05-20T10:09:42.255Z,13.75
2023-05-20T10:10:42.220Z,13.76
2023-05-20T10:11:42.205Z,13.76
2023-05-20T10:12:42.196Z,13.76
2023-05-20T10:13:42.179Z,13.73
2023-05-20T10:14:42.308Z,13.73
2023-05-20T10:15:42.174Z,13.73
2023-05-20T10:16:42.144Z,13.73
2023-05-20T10:17:42.188Z,13.73
2023-05-20T10:18:42.186Z,13.72
2023-05-20T10:19:42.106Z,13.72
2023-05-20T10:20:42.093Z,13.72
2023-05-20T10:21:42.074Z,13.72
2023-05-20T10:22:42.074Z,13.72
2023-05-20T10:23:42.052Z,13.72
2023-05-20T10:24:42.049Z,13.70
2023-05-20T10:25:42.025Z,13.70
2023-05-20T10:26:42.042Z,13.70
2023-05-20T10:27:42.007Z,13.72
2023-05-20T10:28:41.991Z,13.70
2023-05-20T10:29:41.974Z,13.72
2023-05-20T10:30:44.336Z,13.72
2023-05-20T10:31:41.950Z,13.72
2023-05-20T10:32:41.977Z,13.73
2023-05-20T10:33:41.964Z,13.73
2023-05-20T10:34:41.904Z,13.75
2023-05-20T10:35:41.895Z,13.75
2023-05-20T10:36:42.800Z,13.75
2023-05-20T10:37:41.888Z,13.76
2023-05-20T10:38:41.852Z,13.78
2023-05-20T10:39:41.839Z,13.75
2023-05-20T10:40:41.831Z,13.78
2023-05-20T10:41:41.818Z,13.79
2023-05-20T10:42:41.804Z,13.82
2023-05-20T10:43:41.789Z,13.80
2023-05-20T10:44:41.776Z,13.82
2023-05-20T10:45:41.764Z,13.83
2023-05-20T10:46:57.278Z,13.83
2023-05-20T10:47:42.891Z,13.86
2023-05-20T10:48:41.770Z,13.87
2023-05-20T10:49:41.707Z,13.88
2023-05-20T10:50:41.698Z,13.90
2023-05-20T10:51:41.683Z,13.94
2023-05-20T10:52:41.674Z,13.93
2023-05-20T10:53:41.667Z,13.94
2023-05-20T10:54:41.644Z,13.94
2023-05-20T10:55:41.629Z,13.94
2023-05-20T10:56:41.616Z,13.94
2023-05-20T10:57:41.604Z,13.94
2023-05-20T10:58:41.589Z,13.93
2023-05-20T10:59:41.584Z,13.95
2023-05-20T11:00:41.605Z,13.97
2023-05-20T11:01:41.572Z,14.00
2023-05-20T11:02:41.639Z,14.00
2023-05-20T11:03:41.644Z,14.06
2023-05-20T11:04:41.515Z,14.03
2023-05-20T11:05:41.499Z,14.06
2023-05-20T11:06:41.488Z,14.06
2023-05-20T11:07:41.492Z,14.07
2023-05-20T11:08:41.457Z,14.09
2023-05-20T11:09:41.447Z,14.12
2023-05-20T11:10:41.439Z,14.10
2023-05-20T11:11:41.447Z,14.09
2023-05-20T11:12:41.456Z,14.06
2023-05-20T11:13:41.401Z,14.06
2023-05-20T11:14:41.385Z,14.09
2023-05-20T11:15:41.372Z,14.09
2023-05-20T11:16:41.377Z,14.12
2023-05-20T11:17:41.372Z,14.10
2023-05-20T11:18:41.397Z,14.10
2023-05-20T11:19:41.321Z,14.07
2023-05-20T11:20:41.308Z,14.06
2023-05-20T11:21:41.294Z,14.07
2023-05-20T11:22:41.282Z,14.06
2023-05-20T11:23:41.268Z,14.06
2023-05-20T11:24:41.254Z,14.03
2023-05-20T11:25:41.242Z,14.07
2023-05-20T11:26:41.234Z,14.07
2023-05-20T11:27:41.216Z,14.07
2023-05-20T11:28:41.204Z,14.07
2023-05-20T11:29:41.191Z,14.07
2023-05-20T11:30:41.174Z,14.07
2023-05-20T11:31:41.182Z,14.09
2023-05-20T11:32:41.260Z,14.10
2023-05-20T11:33:41.142Z,14.10
2023-05-20T11:34:41.154Z,14.10
2023-05-20T11:35:41.125Z,14.10
2023-05-20T11:36:41.096Z,14.10
2023-05-20T11:37:41.086Z,14.09
2023-05-20T11:38:41.079Z,14.07
2023-05-20T11:39:41.063Z,14.07
2023-05-20T11:40:49.842Z,14.09
2023-05-20T11:41:42.071Z,14.09
2023-05-20T11:42:41.019Z,14.10
2023-05-20T11:43:41.012Z,14.07
2023-05-20T11:44:40.993Z,14.06
2023-05-20T11:45:40.983Z,14.07
2023-05-20T11:46:41.008Z,14.06
2023-05-20T11:47:40.985Z,14.07
2023-05-20T11:48:40.947Z,14.07
2023-05-20T11:49:41.023Z,14.09
2023-05-20T11:50:40.941Z,14.09
2023-05-20T11:51:40.903Z,14.09
2023-05-20T11:52:40.886Z,14.07
2023-05-20T11:53:40.965Z,14.07
2023-05-20T11:54:40.862Z,14.09
2023-05-20T11:55:40.849Z,14.09
2023-05-20T11:56:40.833Z,14.07
2023-05-20T11:57:40.821Z,14.07
2023-05-20T11:58:40.806Z,14.07
2023-05-20T11:59:40.797Z,14.09
2023-05-20T12:00:50.678Z,14.09
2023-05-20T12:01:41.811Z,14.09
2023-05-20T12:02:40.804Z,14.09
2023-05-20T12:03:40.946Z,14.09
2023-05-20T12:04:40.737Z,14.07
2023-05-20T12:05:40.717Z,14.09
2023-05-20T12:06:40.730Z,14.09
2023-05-20T12:07:40.695Z,14.12
2023-05-20T12:08:40.676Z,14.10
2023-05-20T12:09:40.662Z,14.09
2023-05-20T12:10:40.650Z,14.07
2023-05-20T12:11:40.665Z,14.07
2023-05-20T12:12:40.629Z,14.07
2023-05-20T12:13:40.616Z,14.07
2023-05-20T12:14:40.601Z,14.09
2023-05-20T12:15:40.656Z,14.07
2023-05-20T12:16:40.632Z,14.09
2023-05-20T12:17:40.587Z,14.09
2023-05-20T12:18:40.591Z,14.10
2023-05-20T12:19:42.032Z,14.12
2023-05-20T12:20:40.521Z,14.12
2023-05-20T12:21:40.510Z,14.10
2023-05-20T12:22:40.535Z,14.09
2023-05-20T12:23:40.482Z,14.12
2023-05-20T12:24:40.468Z,14.13
2023-05-20T12:25:40.458Z,14.16
2023-05-20T12:26:40.444Z,14.16
2023-05-20T12:27:40.437Z,14.16
2023-05-20T12:28:40.415Z,14.17
2023-05-20T12:29:40.405Z,14.19
2023-05-20T12:30:40.399Z,14.19
2023-05-20T12:31:40.431Z,14.20
2023-05-20T12:32:40.397Z,14.21
2023-05-20T12:33:40.351Z,14.21
2023-05-20T12:34:40.334Z,14.19
2023-05-20T12:35:40.325Z,14.20
2023-05-20T12:36:40.310Z,14.19
2023-05-20T12:37:40.298Z,14.19
2023-05-20T12:38:40.357Z,14.19
2023-05-20T12:39:40.280Z,14.20
2023-05-20T12:40:40.258Z,14.20
2023-05-20T12:41:40.254Z,14.21
2023-05-20T12:42:40.242Z,14.24
2023-05-20T12:43:40.236Z,14.24
2023-05-20T12:44:40.205Z,14.24
2023-05-20T12:45:40.192Z,14.21
2023-05-20T12:46:40.220Z,14.25
2023-05-20T12:47:40.188Z,14.25
2023-05-20T12:48:42.605Z,14.27
2023-05-20T12:49:40.140Z,14.28
2023-05-20T12:50:40.125Z,14.28
2023-05-20T12:51:40.128Z,14.25
2023-05-20T12:52:40.099Z,14.27